createdAt,value
2018-01-04T00:00:10.652Z,983.62
2018-01-04T00:01:10.669Z,983.65
2018-01-04T00:02:10.692Z,983.73
2018-01-04T00:03:10.704Z,983.66
2018-01-04T00:04:10.728Z,983.77
2018-01-04T00:05:10.737Z,983.79
2018-01-04T00:06:10.754Z,983.91
2018-01-04T00:07:10.775Z,983.84
2018-01-04T00:08:10.795Z,983.87
2018-01-04T00:09:10.808Z,983.84
2018-01-04T00:10:10.823Z,984.04
2018-01-04T00:12:10.856Z,984.05
2018-01-04T00:13:10.881Z,984.04
2018-01-04T00:14:10.890Z,984.05
2018-01-04T00:15:10.915Z,984.04
2018-01-04T00:16:10.925Z,983.93
2018-01-04T00:17:10.943Z,984.05
2018-01-04T00:18:10.965Z,983.98
2018-01-04T00:19:10.982Z,984.05
2018-01-04T00:20:11.000Z,984.01
2018-01-04T00:21:11.011Z,984.17
2018-01-04T00:22:11.028Z,984.05
2018-01-04T00:23:11.045Z,984.09
2018-01-04T00:24:11.067Z,984.14
2018-01-04T00:25:11.079Z,984.15
2018-01-04T00:26:11.095Z,984.18
2018-01-04T00:28:11.136Z,984.35
2018-01-04T00:29:11.146Z,984.19
2018-01-04T00:30:11.171Z,984.18
2018-01-04T00:31:11.182Z,984.18
2018-01-04T00:32:11.197Z,984.16
2018-01-04T00:33:11.215Z,984.25
2018-01-04T00:34:11.231Z,984.22
2018-01-04T00:35:11.248Z,984.18
2018-01-04T00:36:11.271Z,984.19
2018-01-04T00:37:11.288Z,984.22
2018-01-04T00:38:11.301Z,984.21
2018-01-04T00:39:11.324Z,984.29
2018-01-04T00:40:11.333Z,984.24
2018-01-04T00:41:11.352Z,984.24
2018-01-04T00:42:11.369Z,984.3
2018-01-04T00:44:11.402Z,984.32
2018-01-04T00:45:11.425Z,984.3
2018-01-04T00:46:11.437Z,984.39
2018-01-04T00:47:11.460Z,984.42
2018-01-04T00:48:11.471Z,984.45
2018-01-04T00:49:11.488Z,984.43
2018-01-04T00:50:11.506Z,984.46
2018-01-04T00:51:11.527Z,984.57
2018-01-04T00:52:11.538Z,984.5
2018-01-04T00:53:11.556Z,984.57
2018-01-04T00:54:11.573Z,984.62
2018-01-04T00:55:11.598Z,984.75
2018-01-04T00:56:11.606Z,984.6
2018-01-04T00:57:11.625Z,984.51
2018-01-04T00:58:11.647Z,984.43
2018-01-04T01:00:11.674Z,984.67
2018-01-04T01:01:11.691Z,984.58
2018-01-04T01:02:11.708Z,984.53
2018-01-04T01:03:11.725Z,984.55
2018-01-04T01:04:11.746Z,984.56
2018-01-04T01:05:11.759Z,984.71
2018-01-04T01:06:11.783Z,984.86
2018-01-04T01:07:11.793Z,984.96
2018-01-04T01:08:11.810Z,984.8
2018-01-04T01:09:11.827Z,984.9
2018-01-04T01:10:11.844Z,984.91
2018-01-04T01:11:11.860Z,984.95
2018-01-04T01:12:11.884Z,984.93
2018-01-04T01:13:11.895Z,984.99
2018-01-04T01:15:11.929Z,985.03
2018-01-04T01:16:11.947Z,984.95
2018-01-04T01:17:11.966Z,985.08
2018-01-04T01:18:11.984Z,984.94
2018-01-04T01:19:11.997Z,985.01
2018-01-04T01:20:12.021Z,985.08
2018-01-04T01:21:12.031Z,984.8
2018-01-04T01:22:12.055Z,984.84
2018-01-04T01:23:12.064Z,984.94
2018-01-04T01:24:12.085Z,984.87
2018-01-04T01:25:12.104Z,984.9
2018-01-04T01:26:12.116Z,984.91
2018-01-04T01:27:12.132Z,984.86
2018-01-04T01:28:12.159Z,984.84
2018-01-04T01:29:12.173Z,984.82
2018-01-04T01:30:12.192Z,984.77
2018-01-04T01:31:12.201Z,984.74
2018-01-04T01:32:12.224Z,984.81
2018-01-04T01:33:12.234Z,984.85
2018-01-04T01:34:12.260Z,984.9
2018-01-04T01:35:12.267Z,984.87
2018-01-04T01:36:12.292Z,984.84
2018-01-04T01:37:12.304Z,984.72
2018-01-04T01:38:12.325Z,984.86
2018-01-04T01:39:12.335Z,984.89
2018-01-04T01:40:12.354Z,984.87
2018-01-04T01:41:12.369Z,984.82
2018-01-04T01:42:12.393Z,984.78
2018-01-04T01:43:12.403Z,984.82
2018-01-04T01:44:12.420Z,984.86
2018-01-04T01:45:12.439Z,984.85
2018-01-04T01:47:12.472Z,984.83
2018-01-04T01:48:12.491Z,984.93
2018-01-04T01:49:12.513Z,984.9
2018-01-04T01:50:12.529Z,984.79
2018-01-04T01:51:12.538Z,984.87
2018-01-04T01:52:12.563Z,984.85
2018-01-04T01:53:12.572Z,984.95
2018-01-04T01:54:12.591Z,984.79
2018-01-04T01:55:12.607Z,984.86
2018-01-04T01:56:12.629Z,984.9
2018-01-04T01:57:12.647Z,984.77
2018-01-04T01:58:12.658Z,985.06
2018-01-04T01:59:12.673Z,984.97
2018-01-04T02:00:12.696Z,984.98
2018-01-04T02:01:12.707Z,984.99
2018-01-04T02:03:12.749Z,985.09
2018-01-04T02:04:12.757Z,985.12
2018-01-04T02:05:12.781Z,985.04
2018-01-04T02:06:12.793Z,985.1
2018-01-04T02:07:12.808Z,985.05
2018-01-04T02:08:12.826Z,985.05
2018-01-04T02:09:12.850Z,984.99
2018-01-04T02:10:12.860Z,985.16
2018-01-04T02:11:12.884Z,985.05
2018-01-04T02:12:12.901Z,985.11
2018-01-04T02:13:12.911Z,985.07
2018-01-04T02:14:12.930Z,985.22
2018-01-04T02:15:12.944Z,985.04
2018-01-04T02:16:12.962Z,985.22
2018-01-04T02:17:12.985Z,985.09
2018-01-04T02:19:13.017Z,985.04
2018-01-04T02:20:13.030Z,985.18
2018-01-04T02:21:13.056Z,985.1
2018-01-04T02:22:13.064Z,985.26
2018-01-04T02:23:13.082Z,985.13
2018-01-04T02:24:13.098Z,985.3
2018-01-04T02:25:13.122Z,985.22
2018-01-04T02:26:13.130Z,985.18
2018-01-04T02:27:13.148Z,985.23
2018-01-04T02:28:13.172Z,985.39
2018-01-04T02:29:13.182Z,985.33
2018-01-04T02:30:13.201Z,985.25
2018-01-04T02:31:13.222Z,985.27
2018-01-04T02:32:13.234Z,985.38
2018-01-04T02:33:13.253Z,985.45
2018-01-04T02:35:13.291Z,985.55
2018-01-04T02:36:13.302Z,985.4
2018-01-04T02:37:13.318Z,985.51
2018-01-04T02:38:13.336Z,985.39
2018-01-04T02:39:13.354Z,985.57
2018-01-04T02:40:13.369Z,985.33
2018-01-04T02:41:13.385Z,985.39
2018-01-04T02:42:13.401Z,985.37
2018-01-04T02:43:13.421Z,985.4
2018-01-04T02:44:13.443Z,985.45
2018-01-04T02:45:13.453Z,985.18
2018-01-04T02:46:13.469Z,985.5
2018-01-04T02:47:13.491Z,985.53
2018-01-04T02:48:13.509Z,985.47
2018-01-04T02:50:13.545Z,985.49
2018-01-04T02:51:13.561Z,985.47
2018-01-04T02:52:13.578Z,985.51
2018-01-04T02:53:13.595Z,985.56
2018-01-04T02:54:13.605Z,985.63
2018-01-04T02:55:13.628Z,985.43
2018-01-04T02:56:13.638Z,985.65
2018-01-04T02:57:13.656Z,985.6
2018-01-04T02:58:13.673Z,985.65
2018-01-04T02:59:13.688Z,985.62
2018-01-04T03:00:13.705Z,985.76
2018-01-04T03:01:13.729Z,985.6
2018-01-04T03:02:13.740Z,985.73
2018-01-04T03:03:13.757Z,985.81
2018-01-04T03:04:13.772Z,985.69
2018-01-04T03:05:13.790Z,985.58
2018-01-04T03:06:13.812Z,985.84
2018-01-04T03:07:13.823Z,985.81
2018-01-04T03:08:13.846Z,985.76
2018-01-04T03:09:13.856Z,985.87
2018-01-04T03:10:13.879Z,985.84
2018-01-04T03:11:13.891Z,985.82
2018-01-04T03:12:13.908Z,985.92
2018-01-04T03:13:13.923Z,985.83
2018-01-04T03:14:13.941Z,985.9
2018-01-04T03:15:13.958Z,985.92
2018-01-04T03:16:13.982Z,985.94
2018-01-04T03:17:13.998Z,985.9
2018-01-04T03:18:14.012Z,985.87
2018-01-04T03:19:14.025Z,985.89
2018-01-04T03:20:14.048Z,985.96
2018-01-04T03:22:14.082Z,985.76
2018-01-04T03:23:14.094Z,985.96
2018-01-04T03:24:14.111Z,985.9
2018-01-04T03:25:14.125Z,985.95
2018-01-04T03:26:14.152Z,985.95
2018-01-04T03:27:14.159Z,985.95
2018-01-04T03:28:14.176Z,985.98
2018-01-04T03:29:14.200Z,986.04
2018-01-04T03:30:14.212Z,986
2018-01-04T03:31:14.227Z,985.96
2018-01-04T03:32:14.243Z,986.07
2018-01-04T03:33:14.261Z,986.07
2018-01-04T03:34:14.278Z,985.97
2018-01-04T03:35:14.303Z,986.03
2018-01-04T03:36:14.311Z,986.01
2018-01-04T03:38:14.352Z,986.02
2018-01-04T03:39:14.361Z,986.14
2018-01-04T03:40:14.387Z,986.18
2018-01-04T03:41:14.397Z,986.14
2018-01-04T03:42:14.421Z,986.07
2018-01-04T03:43:14.431Z,986.21
2018-01-04T03:44:14.456Z,986.12
2018-01-04T03:45:14.463Z,986.23
2018-01-04T03:46:14.496Z,986.22
2018-01-04T03:47:14.498Z,986.18
2018-01-04T03:48:14.514Z,986.14
2018-01-04T03:49:14.596Z,986.16
2018-01-04T03:50:14.554Z,986.29
2018-01-04T03:51:14.572Z,986.13
2018-01-04T03:52:14.582Z,986.3
2018-01-04T03:54:14.616Z,986.32
2018-01-04T03:55:14.633Z,986.32
2018-01-04T03:56:14.650Z,986.27
2018-01-04T03:57:14.672Z,986.3
2018-01-04T03:58:14.683Z,986.3
2018-01-04T03:59:14.700Z,986.38
2018-01-04T04:00:14.718Z,986.46
2018-01-04T04:01:14.745Z,986.35
2018-01-04T04:02:14.752Z,986.44
2018-01-04T04:03:14.775Z,986.44
2018-01-04T04:04:14.784Z,986.42
2018-01-04T04:05:14.801Z,986.5
2018-01-04T04:06:14.818Z,986.42
2018-01-04T04:07:14.838Z,986.53
2018-01-04T04:08:14.852Z,986.49
2018-01-04T04:10:14.894Z,986.47
2018-01-04T04:11:14.905Z,986.56
2018-01-04T04:12:14.926Z,986.43
2018-01-04T04:13:14.937Z,986.6
2018-01-04T04:14:14.954Z,986.65
2018-01-04T04:15:14.970Z,986.5
2018-01-04T04:16:14.987Z,986.62
2018-01-04T04:17:15.007Z,986.55
2018-01-04T04:18:15.024Z,986.57
2018-01-04T04:19:15.039Z,986.55
2018-01-04T04:20:15.060Z,986.5
2018-01-04T04:21:15.074Z,986.58
2018-01-04T04:22:15.091Z,986.56
2018-01-04T04:23:15.114Z,986.53
2018-01-04T04:25:15.141Z,986.78
2018-01-04T04:26:15.164Z,986.59
2018-01-04T04:27:15.185Z,986.65
2018-01-04T04:28:15.211Z,986.73
2018-01-04T04:29:15.209Z,986.77
2018-01-04T04:30:15.225Z,986.66
2018-01-04T04:31:15.249Z,986.75
2018-01-04T04:32:15.261Z,986.8
2018-01-04T04:33:15.276Z,986.69
2018-01-04T04:34:15.294Z,986.81
2018-01-04T04:35:15.311Z,986.9
2018-01-04T04:36:15.329Z,986.81
2018-01-04T04:37:15.344Z,986.85
2018-01-04T04:38:15.361Z,986.89
2018-01-04T04:39:15.378Z,986.85
2018-01-04T04:40:15.397Z,986.84
2018-01-04T04:41:15.418Z,986.89
2018-01-04T04:42:15.437Z,986.89
2018-01-04T04:43:15.454Z,986.96
2018-01-04T04:44:15.469Z,986.89
2018-01-04T04:45:15.487Z,986.96
2018-01-04T04:46:15.498Z,986.93
2018-01-04T04:47:15.520Z,986.98
2018-01-04T04:48:15.532Z,986.98
2018-01-04T04:49:15.549Z,987.05
2018-01-04T04:50:15.579Z,986.89
2018-01-04T04:51:15.583Z,987.01
2018-01-04T04:52:15.606Z,987.08
2018-01-04T04:53:15.623Z,987.18
2018-01-04T04:54:15.633Z,986.98
2018-01-04T04:55:15.659Z,987.09
2018-01-04T04:57:15.684Z,987.12
2018-01-04T04:58:15.707Z,987.2
2018-01-04T04:59:15.719Z,987.07
2018-01-04T05:00:15.742Z,987.2
2018-01-04T05:01:15.752Z,987.27
2018-01-04T05:02:15.776Z,987.29
2018-01-04T05:03:15.792Z,987.1
2018-01-04T05:04:15.811Z,987.22
2018-01-04T05:05:15.820Z,987.23
2018-01-04T05:06:15.844Z,987.28
2018-01-04T05:07:15.857Z,987.18
2018-01-04T05:08:15.878Z,987.26
2018-01-04T05:09:15.888Z,987.28
2018-01-04T05:10:15.910Z,987.26
2018-01-04T05:11:15.929Z,987.36
2018-01-04T05:13:15.956Z,987.33
2018-01-04T05:14:15.980Z,987.32
2018-01-04T05:15:15.991Z,987.29
2018-01-04T05:16:16.007Z,987.33
2018-01-04T05:17:16.024Z,987.38
2018-01-04T05:18:16.047Z,987.33
2018-01-04T05:19:16.066Z,987.34
2018-01-04T05:20:16.083Z,987.37
2018-01-04T05:21:16.099Z,987.33
2018-01-04T05:22:16.109Z,987.32
2018-01-04T05:23:16.132Z,987.37
2018-01-04T05:24:16.144Z,987.41
2018-01-04T05:25:16.167Z,987.44
2018-01-04T05:26:16.184Z,987.44
2018-01-04T05:27:16.202Z,987.41
2018-01-04T05:29:16.228Z,987.51
2018-01-04T05:30:16.252Z,987.54
2018-01-04T05:31:16.264Z,987.42
2018-01-04T05:32:16.280Z,987.51
2018-01-04T05:33:16.297Z,987.55
2018-01-04T05:34:16.313Z,987.55
2018-01-04T05:35:16.337Z,987.64
2018-01-04T05:36:16.348Z,987.68
2018-01-04T05:37:16.367Z,987.68
2018-01-04T05:38:16.390Z,987.72
2018-01-04T05:39:16.398Z,987.65
2018-01-04T05:40:16.466Z,987.66
2018-01-04T05:41:16.440Z,987.65
2018-01-04T05:42:16.450Z,987.65
2018-01-04T05:43:16.467Z,987.68
2018-01-04T05:45:16.501Z,987.69
2018-01-04T05:46:16.524Z,987.72
2018-01-04T05:47:16.536Z,987.7
2018-01-04T05:48:16.553Z,987.73
2018-01-04T05:49:16.577Z,987.68
2018-01-04T05:50:16.593Z,987.75
2018-01-04T05:51:16.610Z,987.78
2018-01-04T05:52:16.621Z,987.77
2018-01-04T05:53:16.638Z,987.84
2018-01-04T05:54:16.660Z,987.74
2018-01-04T05:55:16.678Z,987.83
2018-01-04T05:56:16.688Z,987.77
2018-01-04T05:57:16.713Z,987.89
2018-01-04T05:58:16.729Z,987.86
2018-01-04T06:00:16.758Z,987.78
2018-01-04T06:01:16.775Z,987.79
2018-01-04T06:02:16.799Z,987.81
2018-01-04T06:03:16.809Z,987.79
2018-01-04T06:04:16.826Z,987.88
2018-01-04T06:05:16.843Z,987.88
2018-01-04T06:06:16.861Z,987.86
2018-01-04T06:07:16.884Z,987.98
2018-01-04T06:08:16.900Z,987.92
2018-01-04T06:09:16.919Z,987.97
2018-01-04T06:10:16.935Z,987.9
2018-01-04T06:11:16.945Z,988.01
2018-01-04T06:12:16.961Z,988.01
2018-01-04T06:13:16.978Z,987.96
2018-01-04T06:14:17.007Z,988
2018-01-04T06:15:17.013Z,987.97
2018-01-04T06:16:17.029Z,987.86
2018-01-04T06:17:17.048Z,987.89
2018-01-04T06:18:17.065Z,988.07
2018-01-04T06:19:17.087Z,987.9
2018-01-04T06:20:17.104Z,987.87
2018-01-04T06:21:17.117Z,987.94
2018-01-04T06:22:17.139Z,987.92
2018-01-04T06:23:17.148Z,987.99
2018-01-04T06:24:17.167Z,987.98
2018-01-04T06:25:17.184Z,987.93
2018-01-04T06:26:17.207Z,988.02
2018-01-04T06:27:17.219Z,987.96
2018-01-04T06:28:17.236Z,988.03
2018-01-04T06:29:17.258Z,988.05
2018-01-04T06:30:17.276Z,987.96
2018-01-04T06:32:17.302Z,987.92
2018-01-04T06:33:17.325Z,987.94
2018-01-04T06:34:17.335Z,988.03
2018-01-04T06:35:17.354Z,987.92
2018-01-04T06:36:17.377Z,988.02
2018-01-04T06:37:17.386Z,987.95
2018-01-04T06:38:17.403Z,988.1
2018-01-04T06:39:17.422Z,988.01
2018-01-04T06:40:17.439Z,988.07
2018-01-04T06:41:17.461Z,988.1
2018-01-04T06:42:17.479Z,987.98
2018-01-04T06:43:17.496Z,988.09
2018-01-04T06:44:17.513Z,988.09
2018-01-04T06:45:17.529Z,988.14
2018-01-04T06:46:17.539Z,988.16
2018-01-04T06:48:17.574Z,988.15
2018-01-04T06:49:17.591Z,988.13
2018-01-04T06:50:17.607Z,988.19
2018-01-04T06:51:17.625Z,988.09
2018-01-04T06:52:17.641Z,988.11
2018-01-04T06:53:17.669Z,988.25
2018-01-04T06:54:17.675Z,988.24
2018-01-04T06:55:17.693Z,988.19
2018-01-04T06:56:17.709Z,988.2
2018-01-04T06:57:17.733Z,988.32
2018-01-04T06:58:17.744Z,988.33
2018-01-04T06:59:17.768Z,988.37
2018-01-04T07:00:17.777Z,988.34
2018-01-04T07:01:17.795Z,988.37
2018-01-04T07:02:17.811Z,988.3
2018-01-04T07:04:17.850Z,988.33
2018-01-04T07:05:17.869Z,988.31
2018-01-04T07:06:17.886Z,988.42
2018-01-04T07:07:17.895Z,988.4
2018-01-04T07:08:17.913Z,988.43
2018-01-04T07:09:17.937Z,988.49
2018-01-04T07:10:17.947Z,988.47
2018-01-04T07:11:17.971Z,988.38
2018-01-04T07:12:17.981Z,988.49
2018-01-04T07:13:17.999Z,988.5
2018-01-04T07:14:18.014Z,988.5
2018-01-04T07:15:18.039Z,988.61
2018-01-04T07:16:18.056Z,988.5
2018-01-04T07:17:18.066Z,988.57
2018-01-04T07:18:18.090Z,988.55
2018-01-04T07:20:18.124Z,988.54
2018-01-04T07:21:18.134Z,988.52
2018-01-04T07:22:18.150Z,988.56
2018-01-04T07:23:18.167Z,988.59
2018-01-04T07:24:18.192Z,988.6
2018-01-04T07:25:18.209Z,988.61
2018-01-04T07:26:18.225Z,988.7
2018-01-04T07:27:18.242Z,988.67
2018-01-04T07:28:18.253Z,988.7
2018-01-04T07:29:18.269Z,988.64
2018-01-04T07:30:18.294Z,988.7
2018-01-04T07:31:18.311Z,988.69
2018-01-04T07:32:18.327Z,988.67
2018-01-04T07:33:18.338Z,988.79
2018-01-04T07:35:18.380Z,988.69
2018-01-04T07:36:18.396Z,988.75
2018-01-04T07:37:18.407Z,988.78
2018-01-04T07:38:18.431Z,988.78
2018-01-04T07:39:18.441Z,988.7
2018-01-04T07:40:18.459Z,988.74
2018-01-04T07:41:18.475Z,988.68
2018-01-04T07:42:18.492Z,988.71
2018-01-04T07:43:18.510Z,988.73
2018-01-04T07:44:18.526Z,988.75
2018-01-04T07:45:18.550Z,988.74
2018-01-04T07:46:18.568Z,988.8
2018-01-04T07:47:18.584Z,988.78
2018-01-04T07:48:18.595Z,988.79
2018-01-04T07:49:18.612Z,988.72
2018-01-04T07:50:18.632Z,988.69
2018-01-04T07:51:18.646Z,988.72
2018-01-04T07:52:18.664Z,988.71
2018-01-04T07:53:18.684Z,988.84
2018-01-04T07:54:18.696Z,988.77
2018-01-04T07:55:18.714Z,988.83
2018-01-04T07:56:18.731Z,988.81
2018-01-04T07:57:18.749Z,988.87
2018-01-04T07:58:18.771Z,988.89
2018-01-04T07:59:18.782Z,988.9
2018-01-04T08:00:18.806Z,988.98
2018-01-04T08:01:18.824Z,988.97
2018-01-04T08:02:18.843Z,988.94
2018-01-04T08:03:18.850Z,988.98
2018-01-04T08:04:18.870Z,989.01
2018-01-04T08:05:18.885Z,989
2018-01-04T08:07:18.920Z,989.1
2018-01-04T08:08:18.941Z,989.01
2018-01-04T08:09:18.956Z,989.04
2018-01-04T08:10:18.978Z,989.11
2018-01-04T08:11:18.987Z,989.09
2018-01-04T08:12:19.012Z,989.09
2018-01-04T08:13:19.021Z,989.1
2018-01-04T08:14:19.045Z,989.16
2018-01-04T08:15:19.056Z,989.2
2018-01-04T08:16:19.075Z,989.19
2018-01-04T08:17:19.090Z,989.08
2018-01-04T08:18:19.108Z,989.19
2018-01-04T08:19:19.134Z,989.17
2018-01-04T08:20:19.142Z,989.12
2018-01-04T08:21:19.160Z,989.15
2018-01-04T08:23:19.201Z,989.18
2018-01-04T08:24:19.211Z,989.22
2018-01-04T08:25:19.227Z,989.17
2018-01-04T08:26:19.246Z,989.13
2018-01-04T08:27:19.268Z,989.17
2018-01-04T08:28:19.278Z,989.19
2018-01-04T08:29:19.303Z,989.25
2018-01-04T08:30:19.321Z,989.19
2018-01-04T08:31:19.331Z,989.2
2018-01-04T08:32:19.348Z,989.27
2018-01-04T08:33:19.365Z,989.14
2018-01-04T08:34:19.390Z,989.22
2018-01-04T08:35:19.402Z,989.3
2018-01-04T08:36:19.424Z,989.27
2018-01-04T08:37:19.442Z,989.27
2018-01-04T08:39:19.475Z,989.36
2018-01-04T08:40:19.493Z,989.34
2018-01-04T08:41:19.503Z,989.33
2018-01-04T08:42:19.531Z,989.32
2018-01-04T08:43:19.544Z,989.33
2018-01-04T08:44:19.564Z,989.39
2018-01-04T08:45:19.580Z,989.42
2018-01-04T08:46:19.589Z,989.39
2018-01-04T08:47:19.614Z,989.39
2018-01-04T08:48:19.632Z,989.44
2018-01-04T08:49:19.641Z,989.41
2018-01-04T08:50:19.660Z,989.38
2018-01-04T08:51:19.682Z,989.43
2018-01-04T08:52:19.695Z,989.46
2018-01-04T08:53:19.710Z,989.41
2018-01-04T08:55:19.753Z,989.42
2018-01-04T08:56:19.770Z,989.39
2018-01-04T08:57:19.780Z,989.42
2018-01-04T08:58:19.799Z,989.41
2018-01-04T08:59:19.822Z,989.46
2018-01-04T09:00:19.832Z,989.48
2018-01-04T09:01:19.856Z,989.5
2018-01-04T09:02:19.870Z,989.48
2018-01-04T09:03:19.884Z,989.52
2018-01-04T09:04:19.901Z,989.48
2018-01-04T09:05:19.919Z,989.53
2018-01-04T09:06:19.938Z,989.61
2018-01-04T09:07:19.957Z,989.59
2018-01-04T09:08:19.972Z,989.52
2018-01-04T09:10:20.016Z,989.6
2018-01-04T09:11:20.024Z,989.62
2018-01-04T09:12:20.046Z,989.6
2018-01-04T09:13:20.060Z,989.65
2018-01-04T09:14:20.079Z,989.65
2018-01-04T09:15:20.095Z,989.68
2018-01-04T09:16:20.115Z,989.62
2018-01-04T09:17:20.137Z,989.63
2018-01-04T09:18:20.154Z,989.73
2018-01-04T09:19:20.164Z,989.62
2018-01-04T09:20:20.182Z,989.67
2018-01-04T09:21:20.205Z,989.63
2018-01-04T09:22:20.224Z,989.67
2018-01-04T09:23:20.234Z,989.63
2018-01-04T09:24:20.258Z,989.68
2018-01-04T09:25:20.370Z,989.59
2018-01-04T09:26:20.294Z,989.66
2018-01-04T09:27:20.316Z,989.62
2018-01-04T09:28:20.322Z,989.64
2018-01-04T09:29:20.347Z,989.59
2018-01-04T09:30:20.358Z,989.66
2018-01-04T09:31:20.375Z,989.7
2018-01-04T09:32:20.400Z,989.65
2018-01-04T09:33:20.410Z,989.56
2018-01-04T09:34:20.428Z,989.64
2018-01-04T09:35:20.447Z,989.63
2018-01-04T09:36:20.464Z,989.62
2018-01-04T09:37:20.486Z,989.66
2018-01-04T09:38:20.499Z,989.68
2018-01-04T09:39:20.524Z,989.67
2018-01-04T09:40:20.539Z,989.68
2018-01-04T09:42:20.570Z,989.73
2018-01-04T09:43:20.590Z,989.69
2018-01-04T09:44:20.604Z,989.72
2018-01-04T09:45:20.623Z,989.65
2018-01-04T09:46:20.640Z,989.72
2018-01-04T09:47:20.665Z,989.77
2018-01-04T09:48:20.675Z,989.74
2018-01-04T09:49:20.694Z,989.73
2018-01-04T09:50:20.711Z,989.7
2018-01-04T09:51:20.735Z,989.78
2018-01-04T09:52:20.748Z,989.72
2018-01-04T09:53:20.766Z,989.8
2018-01-04T09:54:20.790Z,989.81
2018-01-04T09:55:20.800Z,989.8
2018-01-04T09:56:20.818Z,989.77
2018-01-04T09:58:20.862Z,989.77
2018-01-04T09:59:20.871Z,989.82
2018-01-04T10:00:20.897Z,989.78
2018-01-04T10:01:20.914Z,989.77
2018-01-04T10:02:21.160Z,989.87
2018-01-04T10:03:20.952Z,989.85
2018-01-04T10:04:20.968Z,989.79
2018-01-04T10:05:20.979Z,989.88
2018-01-04T10:06:21.003Z,989.8
2018-01-04T10:07:21.020Z,989.82
2018-01-04T10:08:21.033Z,989.9
2018-01-04T10:09:21.050Z,989.82
2018-01-04T10:10:21.074Z,989.82
2018-01-04T10:11:21.096Z,989.89
2018-01-04T10:12:21.110Z,989.83
2018-01-04T10:14:21.140Z,989.92
2018-01-04T10:15:21.157Z,989.76
2018-01-04T10:16:21.188Z,989.74
2018-01-04T10:17:21.200Z,989.82
2018-01-04T10:18:21.218Z,989.85
2018-01-04T10:19:21.230Z,989.85
2018-01-04T10:20:21.248Z,989.83
2018-01-04T10:21:21.265Z,989.81
2018-01-04T10:22:21.286Z,989.86
2018-01-04T10:23:21.316Z,989.86
2018-01-04T10:24:21.320Z,989.86
2018-01-04T10:25:21.338Z,989.83
2018-01-04T10:26:21.356Z,989.93
2018-01-04T10:27:21.381Z,989.77
2018-01-04T10:28:21.391Z,989.88
2018-01-04T10:30:21.434Z,989.77
2018-01-04T10:31:21.446Z,989.84
2018-01-04T10:32:21.469Z,989.97
2018-01-04T10:33:21.482Z,989.88
2018-01-04T10:34:21.507Z,989.89
2018-01-04T10:35:21.518Z,989.86
2018-01-04T10:36:21.545Z,989.88
2018-01-04T10:37:21.562Z,989.89
2018-01-04T10:38:21.579Z,989.89
2018-01-04T10:39:21.589Z,989.92
2018-01-04T10:40:21.607Z,989.9
2018-01-04T10:41:21.627Z,989.92
2018-01-04T10:42:21.646Z,989.86
2018-01-04T10:43:21.666Z,989.85
2018-01-04T10:45:21.698Z,989.87
2018-01-04T10:46:21.726Z,989.95
2018-01-04T10:47:21.735Z,989.98
2018-01-04T10:48:21.752Z,989.91
2018-01-04T10:49:21.770Z,989.9
2018-01-04T10:50:21.788Z,989.93
2018-01-04T10:51:21.807Z,989.89
2018-01-04T10:52:21.825Z,989.91
2018-01-04T10:53:21.844Z,989.89
2018-01-04T10:54:21.861Z,990.02
2018-01-04T10:55:21.884Z,989.87
2018-01-04T10:56:21.901Z,989.87
2018-01-04T10:57:21.914Z,989.88
2018-01-04T10:58:21.935Z,989.91
2018-01-04T10:59:21.960Z,989.93
2018-01-04T11:00:21.972Z,989.91
2018-01-04T11:01:22.094Z,989.91
2018-01-04T11:02:22.007Z,989.91
2018-01-04T11:03:22.028Z,989.86
2018-01-04T11:04:22.048Z,989.84
2018-01-04T11:05:22.061Z,989.88
2018-01-04T11:06:22.079Z,989.81
2018-01-04T11:07:22.098Z,989.86
2018-01-04T11:08:22.121Z,989.87
2018-01-04T11:09:22.140Z,989.84
2018-01-04T11:10:22.157Z,989.72
2018-01-04T11:11:22.177Z,989.83
2018-01-04T11:12:22.193Z,989.96
2018-01-04T11:13:22.205Z,989.79
2018-01-04T11:14:22.224Z,989.87
2018-01-04T11:15:22.242Z,989.94
2018-01-04T11:17:22.285Z,989.99
2018-01-04T11:18:22.300Z,989.94
2018-01-04T11:19:22.327Z,989.95
2018-01-04T11:20:22.335Z,989.94
2018-01-04T11:21:22.352Z,989.93
2018-01-04T11:22:22.378Z,989.96
2018-01-04T11:23:22.387Z,989.9
2018-01-04T11:24:22.406Z,989.91
2018-01-04T11:25:22.432Z,989.85
2018-01-04T11:26:22.543Z,989.82
2018-01-04T11:27:22.462Z,989.83
2018-01-04T11:28:22.481Z,989.79
2018-01-04T11:29:22.506Z,989.78
2018-01-04T11:30:22.523Z,989.83
2018-01-04T11:31:22.541Z,989.74
2018-01-04T11:33:22.575Z,989.8
2018-01-04T11:34:22.590Z,989.92
2018-01-04T11:35:22.609Z,989.89
2018-01-04T11:36:22.626Z,989.79
2018-01-04T11:37:22.650Z,989.85
2018-01-04T11:38:22.668Z,989.91
2018-01-04T11:39:22.680Z,989.95
2018-01-04T11:40:22.702Z,989.87
2018-01-04T11:41:22.723Z,989.91
2018-01-04T11:42:22.742Z,989.94
2018-01-04T11:43:22.755Z,989.85
2018-01-04T11:44:22.772Z,989.89
2018-01-04T11:45:22.795Z,989.85
2018-01-04T11:46:22.812Z,989.94
2018-01-04T11:47:22.833Z,989.98
2018-01-04T11:49:22.862Z,989.96
2018-01-04T11:50:22.882Z,990.03
2018-01-04T11:51:22.900Z,990
2018-01-04T11:52:22.917Z,989.95
2018-01-04T11:53:22.935Z,989.98
2018-01-04T11:54:22.954Z,989.98
2018-01-04T11:55:22.981Z,989.85
2018-01-04T11:56:23.002Z,989.96
2018-01-04T11:57:23.011Z,989.95
2018-01-04T11:58:23.057Z,989.89
2018-01-04T11:59:23.045Z,989.96
2018-01-04T12:00:23.063Z,989.84
2018-01-04T12:01:23.087Z,989.92
2018-01-04T12:02:23.100Z,989.87
2018-01-04T12:03:23.117Z,989.89
2018-01-04T12:05:23.153Z,989.83
2018-01-04T12:06:23.171Z,989.87
2018-01-04T12:07:23.196Z,989.71
2018-01-04T12:08:23.208Z,989.75
2018-01-04T12:09:23.226Z,989.81
2018-01-04T12:10:23.244Z,989.87
2018-01-04T12:11:23.262Z,989.83
2018-01-04T12:12:23.281Z,989.82
2018-01-04T12:13:23.300Z,989.83
2018-01-04T12:14:23.324Z,989.84
2018-01-04T12:15:23.336Z,989.87
2018-01-04T12:16:23.354Z,989.84
2018-01-04T12:17:23.372Z,989.9
2018-01-04T12:18:23.390Z,989.7
2018-01-04T12:20:23.435Z,989.78
2018-01-04T12:21:23.444Z,989.81
2018-01-04T12:22:23.471Z,989.73
2018-01-04T12:23:23.483Z,989.81
2018-01-04T12:24:23.507Z,989.87
2018-01-04T12:25:23.519Z,989.8
2018-01-04T12:26:23.537Z,989.78
2018-01-04T12:27:23.559Z,989.77
2018-01-04T12:28:23.572Z,989.85
2018-01-04T12:29:23.598Z,989.81
2018-01-04T12:30:23.616Z,989.86
2018-01-04T12:31:23.636Z,989.79
2018-01-04T12:32:23.653Z,989.73
2018-01-04T12:33:23.670Z,989.77
2018-01-04T12:34:23.683Z,989.79
2018-01-04T12:35:23.702Z,989.76
2018-01-04T12:36:23.726Z,989.79
2018-01-04T12:37:23.738Z,989.84
2018-01-04T12:38:23.760Z,989.86
2018-01-04T12:39:23.781Z,989.84
2018-01-04T12:40:23.799Z,989.81
2018-01-04T12:41:23.811Z,989.74
2018-01-04T12:42:23.864Z,989.78
2018-01-04T12:43:23.854Z,989.75
2018-01-04T12:44:23.866Z,989.76
2018-01-04T12:45:23.885Z,989.75
2018-01-04T12:46:23.903Z,989.73
2018-01-04T12:47:23.921Z,989.68
2018-01-04T12:48:23.946Z,989.73
2018-01-04T12:49:23.965Z,989.73
2018-01-04T12:50:23.983Z,989.68
2018-01-04T12:52:24.013Z,989.7
2018-01-04T12:53:24.031Z,989.7
2018-01-04T12:54:24.049Z,989.74
2018-01-04T12:55:24.067Z,989.73
2018-01-04T12:56:24.087Z,989.71
2018-01-04T12:57:24.104Z,989.72
2018-01-04T12:58:24.130Z,989.76
2018-01-04T12:59:24.147Z,989.8
2018-01-04T13:00:24.160Z,989.83
2018-01-04T13:01:24.177Z,989.79
2018-01-04T13:02:24.198Z,989.81
2018-01-04T13:03:24.221Z,989.74
2018-01-04T13:04:24.232Z,989.75
2018-01-04T13:05:24.255Z,989.84
2018-01-04T13:06:24.270Z,989.8
2018-01-04T13:08:24.305Z,989.84
2018-01-04T13:09:24.323Z,989.82
2018-01-04T13:10:24.349Z,989.8
2018-01-04T13:11:24.360Z,989.86
2018-01-04T13:12:24.383Z,989.81
2018-01-04T13:13:24.396Z,989.81